Time;durP1;ratioP1;P1;durP2;ratioP2;P2;SDS_P1;SDS_P2;PMS_P1;PMS_P2;Temp;Humidity;BMP_temperature;BMP_pressure;BME280_temperature;BME280_humidity;BME280_pressure;Samples;Min_cycle;Max_cycle;Signal;HPM_P1;HPM_P2
2023/11/15 00:00:11;;;;;;;1.67;1.15;;;;;;;;;;6271402;22;20012;-95
2023/11/15 00:02:38;;;;;;;1.15;0.70;;;;;;;;;;6271231;22;20004;-95
2023/11/15 00:05:07;;;;;;;1.58;0.60;;;;;;;;;;6271683;22;20004;-95
2023/11/15 00:11:10;;;;;;;0.80;0.40;;;;;;;;;;6214234;22;20014;-96
2023/11/15 00:13:39;;;;;;;1.30;0.60;;;;;;;;;;6163730;23;20075;-95
2023/11/15 00:16:09;;;;;;;3.95;0.82;;;;;;;;;;6245461;23;20004;-95
2023/11/15 00:18:35;;;;;;;0.75;0.60;;;;;;;;;;6270787;22;20426;-96
2023/11/15 00:21:01;;;;;;;0.75;0.52;;;;;;;;;;6270983;22;20507;-94
2023/11/15 00:23:27;;;;;;;0.88;0.60;;;;;;;;;;6271090;22;20087;-95
2023/11/15 00:26:15;;;;;;;1.15;0.55;;;;;;;;;;6271067;22;20016;-96
2023/11/15 00:28:41;;;;;;;2.85;0.85;;;;;;;;;;6271194;22;20063;-95
2023/11/15 00:34:01;;;;;;;1.13;0.50;;;;;;;;;;6243995;22;20067;-95
2023/11/15 00:36:27;;;;;;;1.27;0.60;;;;;;;;;;6271193;22;20011;-94
2023/11/15 00:38:54;;;;;;;1.73;0.73;;;;;;;;;;6271032;22;20000;-94
2023/11/15 00:41:20;;;;;;;1.38;0.63;;;;;;;;;;6271437;22;20031;-96
2023/11/15 00:43:47;;;;;;;0.70;0.50;;;;;;;;;;6271825;22;20007;-93
2023/11/15 00:46:16;;;;;;;1.23;1.05;;;;;;;;;;6266947;22;20015;-95
2023/11/15 00:48:42;;;;;;;0.90;0.80;;;;;;;;;;6286023;22;19988;-93
2023/11/15 00:51:12;;;;;;;1.05;0.57;;;;;;;;;;6243591;22;20008;-95
2023/11/15 00:53:45;;;;;;;0.82;0.63;;;;;;;;;;6226067;23;20027;-95
2023/11/15 00:56:15;;;;;;;1.13;0.60;;;;;;;;;;6221147;23;20089;-95
2023/11/15 00:59:10;;;;;;;1.52;1.23;;;;;;;;;;6220036;23;20023;-94
2023/11/15 01:01:36;;;;;;;3.10;1.00;;;;;;;;;;6220350;23;20079;-96
2023/11/15 01:16:23;;;;;;;2.45;0.52;;;;;;;;;;6279924;22;20555;-95
2023/11/15 01:22:00;;;;;;;1.15;0.63;;;;;;;;;;6215876;23;20076;-93
2023/11/15 01:28:12;;;;;;;1.40;0.73;;;;;;;;;;6215817;23;20024;-95
2023/11/15 01:34:08;;;;;;;1.45;0.60;;;;;;;;;;6130792;23;20030;-95
2023/11/15 01:36:34;;;;;;;1.10;0.60;;;;;;;;;;6190260;23;20008;-94
2023/11/15 01:39:06;;;;;;;1.52;0.63;;;;;;;;;;6223971;22;20000;-93
2023/11/15 01:41:39;;;;;;;2.83;0.70;;;;;;;;;;6252002;22;20034;-95
2023/11/15 01:44:11;;;;;;;3.00;0.70;;;;;;;;;;6252036;22;20003;-95
2023/11/15 01:46:37;;;;;;;2.25;0.75;;;;;;;;;;6251886;22;20016;-95
2023/11/15 01:49:07;;;;;;;1.42;0.80;;;;;;;;;;6251758;22;20027;-94
2023/11/15 01:54:28;;;;;;;3.15;0.82;;;;;;;;;;6200031;23;20036;-96
2023/11/15 01:57:00;;;;;;;1.58;0.90;;;;;;;;;;6190292;23;20012;-94
2023/11/15 01:59:26;;;;;;;1.90;0.90;;;;;;;;;;6191608;23;20004;-94
2023/11/15 02:08:00;;;;;;;2.40;0.82;;;;;;;;;;6122173;23;20033;-95
2023/11/15 02:10:26;;;;;;;3.17;1.42;;;;;;;;;;6169399;23;20012;-94
2023/11/15 02:12:56;;;;;;;2.20;1.20;;;;;;;;;;6190017;23;20035;-96
2023/11/15 02:15:22;;;;;;;1.70;0.98;;;;;;;;;;6189306;23;20004;-95
2023/11/15 02:18:29;;;;;;;1.90;1.02;;;;;;;;;;6190364;23;20058;-96
2023/11/15 02:20:55;;;;;;;1.40;0.98;;;;;;;;;;6072594;23;20050;-95
2023/11/15 02:23:24;;;;;;;1.40;0.82;;;;;;;;;;6122342;23;20029;-95
2023/11/15 02:25:51;;;;;;;2.03;0.95;;;;;;;;;;6131144;23;20013;-94
2023/11/15 02:28:17;;;;;;;2.67;1.20;;;;;;;;;;6131298;23;20076;-95
2023/11/15 02:30:44;;;;;;;1.50;1.20;;;;;;;;;;6131427;23;20009;-95
2023/11/15 02:33:10;;;;;;;1.88;1.13;;;;;;;;;;6154388;23;19986;-94
2023/11/15 02:35:48;;;;;;;1.83;1.40;;;;;;;;;;6152643;23;20010;-94
2023/11/15 02:38:18;;;;;;;1.25;0.93;;;;;;;;;;6169486;22;20060;-95
2023/11/15 02:40:53;;;;;;;1.67;0.70;;;;;;;;;;6251177;22;19999;-94
2023/11/15 02:43:25;;;;;;;1.88;0.80;;;;;;;;;;6214171;23;20004;-94
2023/11/15 02:45:51;;;;;;;2.15;1.08;;;;;;;;;;6189814;23;20067;-95
2023/11/15 02:48:20;;;;;;;2.20;0.90;;;;;;;;;;6189462;23;20040;-95
2023/11/15 02:50:46;;;;;;;1.55;0.80;;;;;;;;;;6189045;23;20040;-95
2023/11/15 02:53:20;;;;;;;3.05;1.10;;;;;;;;;;6189795;23;20330;-94
2023/11/15 02:58:47;;;;;;;3.22;0.90;;;;;;;;;;6215315;23;20016;-96
2023/11/15 03:01:17;;;;;;;1.25;0.85;;;;;;;;;;6189528;23;20055;-94
2023/11/15 03:03:46;;;;;;;1.23;0.95;;;;;;;;;;6189347;23;20032;-94
2023/11/15 03:06:18;;;;;;;2.28;1.08;;;;;;;;;;6188583;23;20434;-94
2023/11/15 03:08:44;;;;;;;2.03;1.15;;;;;;;;;;6189462;23;20015;-94
2023/11/15 03:11:13;;;;;;;1.85;1.13;;;;;;;;;;6189251;23;20004;-95
2023/11/15 03:14:18;;;;;;;2.30;0.90;;;;;;;;;;6203631;22;20027;-95
2023/11/15 03:16:43;;;;;;;;;;;;;;;;;;6250798;22;20010;-94
2023/11/15 03:19:23;;;;;;;;;;;;;;;;;;;;;
2023/11/15 03:21:55;;;;;;;1.15;0.60;;;;;;;;;;6278531;22;20087;-96
2023/11/15 03:24:24;;;;;;;1.67;1.02;;;;;;;;;;6251684;22;19999;-95
2023/11/15 03:26:57;;;;;;;2.65;1.00;;;;;;;;;;6250470;22;20344;-95
2023/11/15 03:29:29;;;;;;;1.48;0.70;;;;;;;;;;6250825;22;20019;-94
2023/11/15 03:32:02;;;;;;;8.40;0.75;;;;;;;;;;6250965;22;20004;-96
2023/11/15 03:34:40;;;;;;;1.50;0.53;;;;;;;;;;6251158;22;20035;-93
2023/11/15 03:37:10;;;;;;;0.90;0.63;;;;;;;;;;6250920;22;20023;-93
2023/11/15 03:39:37;;;;;;;0.95;0.68;;;;;;;;;;6270269;22;19992;-93
2023/11/15 03:42:10;;;;;;;0.75;0.55;;;;;;;;;;6239185;22;20517;-94
2023/11/15 03:44:39;;;;;;;1.40;0.70;;;;;;;;;;6248236;23;20004;-95
2023/11/15 03:47:08;;;;;;;2.25;0.60;;;;;;;;;;6245587;23;20035;-94
2023/11/15 03:49:37;;;;;;;1.42;0.70;;;;;;;;;;6245893;23;20000;-93
2023/11/15 03:52:07;;;;;;;1.15;0.60;;;;;;;;;;6245909;23;20011;-94
2023/11/15 04:07:09;;;;;;;1.60;0.73;;;;;;;;;;6096749;23;20029;-95
2023/11/15 04:12:54;;;;;;;1.88;0.70;;;;;;;;;;6074094;23;20081;-95
2023/11/15 04:35:33;;;;;;;1.85;1.13;;;;;;;;;;6277907;22;20015;-96
2023/11/15 04:48:25;;;;;;;1.15;0.60;;;;;;;;;;6216398;23;20022;-95
2023/11/15 04:56:56;;;;;;;1.42;0.80;;;;;;;;;;6170457;22;20031;-96
2023/11/15 05:02:47;;;;;;;1.05;0.82;;;;;;;;;;6250647;23;20012;-96
2023/11/15 05:08:10;;;;;;;1.10;0.60;;;;;;;;;;6241063;22;20035;-95
2023/11/15 05:10:39;;;;;;;1.23;0.80;;;;;;;;;;6274090;22;20083;-95
2023/11/15 05:13:11;;;;;;;1.67;1.50;;;;;;;;;;6222643;23;20014;-94
2023/11/15 05:15:37;;;;;;;1.50;0.70;;;;;;;;;;6249073;23;20020;-94
2023/11/15 05:18:09;;;;;;;1.00;0.82;;;;;;;;;;6222087;23;20004;-94
2023/11/15 05:20:36;;;;;;;1.10;0.50;;;;;;;;;;6222997;23;20004;-94
2023/11/15 05:23:08;;;;;;;1.55;0.60;;;;;;;;;;6223535;23;20004;-96
2023/11/15 05:25:40;;;;;;;2.08;0.88;;;;;;;;;;6223734;23;20008;-96
2023/11/15 05:28:18;;;;;;;1.38;0.73;;;;;;;;;;6223554;23;20413;-95
2023/11/15 05:30:44;;;;;;;2.03;1.08;;;;;;;;;;6215737;23;20024;-95
2023/11/15 05:33:11;;;;;;;3.05;1.88;;;;;;;;;;6222245;23;20004;-93
2023/11/15 05:35:40;;;;;;;1.83;1.23;;;;;;;;;;6221833;23;20000;-94
2023/11/15 05:38:07;;;;;;;2.97;1.10;;;;;;;;;;6221591;23;20061;-92
2023/11/15 05:40:35;;;;;;;5.65;1.35;;;;;;;;;;6220974;23;20000;-94
2023/11/15 05:43:04;;;;;;;2.92;1.27;;;;;;;;;;6221785;23;20010;-92
2023/11/15 05:45:45;;;;;;;1.83;0.85;;;;;;;;;;6221766;23;20014;-96
2023/11/15 05:48:11;;;;;;;1.75;1.02;;;;;;;;;;6221772;23;20437;-93
2023/11/15 05:51:11;;;;;;;2.40;0.80;;;;;;;;;;6221777;23;20035;-95
2023/11/15 05:53:37;;;;;;;3.25;1.25;;;;;;;;;;6222127;23;20018;-93
2023/11/15 05:56:15;;;;;;;2.70;1.45;;;;;;;;;;6222340;23;20000;-94
2023/11/15 06:01:17;;;;;;;3.78;1.48;;;;;;;;;;6299756;22;20014;-92
2023/11/15 06:06:40;;;;;;;2.85;0.80;;;;;;;;;;6278617;22;20046;-91
2023/11/15 06:09:24;;;;;;;2.22;1.35;;;;;;;;;;6251729;22;20083;-95
2023/11/15 06:11:51;;;;;;;2.22;1.02;;;;;;;;;;6273163;22;20007;-90
2023/11/15 06:14:18;;;;;;;1.63;0.70;;;;;;;;;;6262896;22;20004;-93
2023/11/15 06:17:41;;;;;;;1.10;0.93;;;;;;;;;;6253011;22;20007;-96
2023/11/15 06:20:49;;;;;;;2.38;0.65;;;;;;;;;;6191117;23;20005;-96
2023/11/15 06:23:46;;;;;;;1.05;0.60;;;;;;;;;;6119972;23;20461;-96
2023/11/15 06:29:18;;;;;;;3.10;0.70;;;;;;;;;;6216521;23;20016;-94
2023/11/15 06:32:13;;;;;;;2.88;0.80;;;;;;;;;;6192951;23;20442;-96
2023/11/15 06:34:44;;;;;;;3.80;0.85;;;;;;;;;;6195647;23;20019;-96
2023/11/15 06:37:13;;;;;;;1.27;0.63;;;;;;;;;;6259639;22;20015;-95
2023/11/15 06:39:46;;;;;;;1.95;0.50;;;;;;;;;;6283763;22;20022;-96
2023/11/15 06:42:13;;;;;;;0.82;0.40;;;;;;;;;;6252846;22;20023;-95
2023/11/15 06:45:00;;;;;;;1.98;1.00;;;;;;;;;;6259311;22;20068;-96
2023/11/15 06:56:48;;;;;;;1.20;0.60;;;;;;;;;;6249038;23;20011;-92
2023/11/15 06:59:36;;;;;;;1.73;1.13;;;;;;;;;;6275846;22;20012;-96
2023/11/15 07:02:06;;;;;;;3.53;1.05;;;;;;;;;;6277606;22;20007;-94
2023/11/15 07:04:32;;;;;;;4.78;2.35;;;;;;;;;;6276207;22;20058;-95
2023/11/15 07:06:59;;;;;;;5.28;1.40;;;;;;;;;;6275489;22;20020;-94
2023/11/15 07:09:28;;;;;;;2.30;1.50;;;;;;;;;;6274736;22;20005;-96
2023/11/15 07:18:12;;;;;;;3.33;1.10;;;;;;;;;;6237791;22;20036;-96
2023/11/15 07:21:04;;;;;;;2.20;0.70;;;;;;;;;;6262062;22;20066;-96
2023/11/15 07:23:34;;;;;;;1.45;1.05;;;;;;;;;;6261805;22;20015;-96
2023/11/15 07:26:00;;;;;;;1.73;0.98;;;;;;;;;;6238092;22;20016;-94
2023/11/15 07:31:31;;;;;;;1.17;0.82;;;;;;;;;;6258531;23;20026;-94
2023/11/15 07:34:00;;;;;;;2.10;1.08;;;;;;;;;;6228832;23;19996;-96
2023/11/15 07:36:36;;;;;;;2.53;1.15;;;;;;;;;;6231461;23;20008;-95
2023/11/15 07:39:41;;;;;;;2.30;1.45;;;;;;;;;;6231135;23;20000;-95
2023/11/15 07:42:41;;;;;;;2.78;0.80;;;;;;;;;;6227897;23;20453;-96
2023/11/15 07:56:46;;;;;;;1.67;0.98;;;;;;;;;;6289163;22;20010;-95
2023/11/15 08:21:25;;;;;;;1.27;0.90;;;;;;;;;;6283125;22;20014;-95
2023/11/15 08:23:59;;;;;;;2.55;1.40;;;;;;;;;;6260031;22;20251;-96
2023/11/15 08:26:48;;;;;;;;;;;;;;;;;;;;;
2023/11/15 08:37:58;;;;;;;1.70;1.27;;;;;;;;;;6229319;23;20020;-93
2023/11/15 08:40:25;;;;;;;1.05;0.95;;;;;;;;;;6197390;23;20005;-96
2023/11/15 08:43:44;;;;;;;1.77;0.82;;;;;;;;;;6199315;23;20013;-96
2023/11/15 08:45:57;;;;;;;1.65;0.88;;;;;;;;;;6241575;22;20108;-96
2023/11/15 08:48:25;;;;;;;1.25;0.80;;;;;;;;;;6268679;22;20034;-95
2023/11/15 08:50:58;;;;;;;1.70;1.13;;;;;;;;;;6258196;22;20020;-94
2023/11/15 08:53:25;;;;;;;2.55;0.98;;;;;;;;;;6258901;22;20008;-94
2023/11/15 08:56:07;;;;;;;2.67;0.70;;;;;;;;;;6256561;22;20027;-96
2023/11/15 08:58:37;;;;;;;2.05;0.93;;;;;;;;;;6257660;22;20007;-93
2023/11/15 09:01:09;;;;;;;1.73;1.23;;;;;;;;;;6253138;22;20103;-96
2023/11/15 09:03:35;;;;;;;1.40;0.88;;;;;;;;;;6253111;22;20006;-92
2023/11/15 09:06:01;;;;;;;2.20;1.35;;;;;;;;;;6254006;22;20022;-94
2023/11/15 09:08:27;;;;;;;2.15;1.27;;;;;;;;;;6254046;22;20000;-92
2023/11/15 09:11:03;;;;;;;1.17;1.02;;;;;;;;;;6254168;22;20095;-96
2023/11/15 09:16:42;;;;;;;1.38;1.27;;;;;;;;;;6197156;23;20076;-94
2023/11/15 09:19:17;;;;;;;1.45;1.15;;;;;;;;;;6162611;23;20427;-92
2023/11/15 09:25:00;;;;;;;3.08;1.63;;;;;;;;;;6224184;23;20012;-96
2023/11/15 09:27:42;;;;;;;1.85;1.10;;;;;;;;;;6193390;23;20016;-96
2023/11/15 09:30:36;;;;;;;2.22;1.30;;;;;;;;;;6226059;22;20028;-94
2023/11/15 09:33:05;;;;;;;2.63;1.50;;;;;;;;;;6190779;23;20012;-94
2023/11/15 09:36:06;;;;;;;2.67;1.98;;;;;;;;;;6165236;23;20067;-93
2023/11/15 09:38:33;;;;;;;2.20;2.00;;;;;;;;;;6098125;23;20007;-94
2023/11/15 09:41:06;;;;;;;2.58;2.25;;;;;;;;;;6072434;23;20045;-96
2023/11/15 09:43:42;;;;;;;1.77;1.13;;;;;;;;;;6069044;23;20003;-94
2023/11/15 09:46:13;;;;;;;2.13;1.20;;;;;;;;;;6067891;23;20015;-94
2023/11/15 09:49:09;;;;;;;2.35;1.65;;;;;;;;;;6074542;23;20009;-96
2023/11/15 09:51:41;;;;;;;4.15;1.60;;;;;;;;;;6119950;23;20521;-94
2023/11/15 09:54:07;;;;;;;4.43;1.50;;;;;;;;;;6132494;23;20010;-94
2023/11/15 09:56:45;;;;;;;2.90;1.05;;;;;;;;;;6131829;23;20005;-95
2023/11/15 09:59:14;;;;;;;1.90;1.23;;;;;;;;;;6131690;23;20505;-96
2023/11/15 10:01:48;;;;;;;3.63;1.30;;;;;;;;;;6134978;23;20002;-91
2023/11/15 10:04:27;;;;;;;8.25;2.13;;;;;;;;;;6130713;23;20383;-96
2023/11/15 10:07:02;;;;;;;8.32;2.60;;;;;;;;;;6131011;23;20097;-92
2023/11/15 10:09:38;;;;;;;2.65;1.88;;;;;;;;;;6146644;23;20105;-94
2023/11/15 10:12:24;;;;;;;2.20;1.98;;;;;;;;;;6178318;23;20075;-95
2023/11/15 10:14:56;;;;;;;4.38;2.30;;;;;;;;;;6192363;23;20009;-94
2023/11/15 10:17:49;;;;;;;2.20;1.90;;;;;;;;;;6192202;23;20449;-94
2023/11/15 10:20:36;;;;;;;2.20;1.80;;;;;;;;;;6191637;23;20004;-94
2023/11/15 10:26:28;;;;;;;4.75;2.88;;;;;;;;;;6218665;23;20019;-93
2023/11/15 10:29:12;;;;;;;1.73;1.60;;;;;;;;;;6190016;23;20016;-94
2023/11/15 10:31:52;;;;;;;4.35;2.58;;;;;;;;;;6192029;23;20008;-94
2023/11/15 10:34:42;;;;;;;2.55;1.88;;;;;;;;;;6191846;23;20009;-95
2023/11/15 10:40:33;;;;;;;2.40;1.70;;;;;;;;;;6127222;23;20054;-94
2023/11/15 10:43:07;;;;;;;2.03;1.70;;;;;;;;;;6102865;23;20042;-93
2023/11/15 10:45:34;;;;;;;2.20;1.95;;;;;;;;;;6102351;23;20105;-94
2023/11/15 10:48:21;;;;;;;3.55;1.73;;;;;;;;;;6102022;23;20432;-94
2023/11/15 10:51:00;;;;;;;4.47;1.77;;;;;;;;;;6102255;23;20025;-96
2023/11/15 10:53:30;;;;;;;3.13;1.58;;;;;;;;;;6102134;23;20016;-94
2023/11/15 10:56:24;;;;;;;4.25;1.63;;;;;;;;;;6102843;23;20010;-96
2023/11/15 10:58:52;;;;;;;3.63;1.50;;;;;;;;;;6101755;23;20010;-92
2023/11/15 11:01:40;;;;;;;3.42;1.52;;;;;;;;;;6101632;23;20006;-96
2023/11/15 11:13:15;;;;;;;2.70;1.30;;;;;;;;;;6221343;23;20447;-96
2023/11/15 11:18:22;;;;;;;2.03;1.08;;;;;;;;;;6295016;22;19923;-94
2023/11/15 11:21:08;;;;;;;2.25;1.10;;;;;;;;;;6276679;22;20007;-93
2023/11/15 11:23:37;;;;;;;1.23;1.13;;;;;;;;;;6255236;22;20000;-95
2023/11/15 11:26:27;;;;;;;1.40;0.85;;;;;;;;;;6239154;22;20022;-95
2023/11/15 11:29:25;;;;;;;;;;;;;;;;;;;;;
2023/11/15 11:34:31;;;;;;;2.67;0.80;;;;;;;;;;6296775;22;20000;-94
2023/11/15 11:37:08;;;;;;;2.70;0.70;;;;;;;;;;6263340;22;20000;-96
2023/11/15 11:40:02;;;;;;;2.95;0.90;;;;;;;;;;6256269;22;20023;-94
2023/11/15 11:53:46;;;;;;;1.48;1.00;;;;;;;;;;6279031;22;20085;-94
2023/11/15 11:59:28;;;;;;;1.30;0.70;;;;;;;;;;6287757;22;20010;-95
2023/11/15 12:02:17;;;;;;;1.20;0.70;;;;;;;;;;6254267;22;20501;-96
2023/11/15 12:04:53;;;;;;;1.13;0.82;;;;;;;;;;6252286;22;20027;-94
2023/11/15 12:07:44;;;;;;;0.93;0.70;;;;;;;;;;6252131;22;20022;-96
2023/11/15 12:10:13;;;;;;;1.13;0.65;;;;;;;;;;6252030;22;20441;-93
2023/11/15 12:13:04;;;;;;;1.15;0.88;;;;;;;;;;6250825;22;20149;-95
2023/11/15 12:15:50;;;;;;;1.75;1.20;;;;;;;;;;6253580;22;19999;-96
2023/11/15 12:18:17;;;;;;;1.35;1.00;;;;;;;;;;6253639;22;20011;-95
2023/11/15 12:20:46;;;;;;;1.58;1.48;;;;;;;;;;6247485;22;20042;-95
2023/11/15 12:23:23;;;;;;;1.83;1.60;;;;;;;;;;6216794;23;20008;-96
2023/11/15 12:25:55;;;;;;;2.35;1.60;;;;;;;;;;6224627;22;20047;-96
2023/11/15 12:28:31;;;;;;;1.52;1.42;;;;;;;;;;6250892;23;20008;-96
2023/11/15 12:31:31;;;;;;;2.20;1.50;;;;;;;;;;6254933;23;20333;-96
2023/11/15 12:33:57;;;;;;;1.63;1.30;;;;;;;;;;6260210;23;20008;-95
2023/11/15 12:37:01;;;;;;;3.75;2.05;;;;;;;;;;6258556;22;20020;-96
2023/11/15 12:45:37;;;;;;;2.40;1.45;;;;;;;;;;6290031;22;20015;-94
2023/11/15 12:54:03;;;;;;;2.03;1.67;;;;;;;;;;6259966;22;20348;-96
2023/11/15 13:30:20;;;;;;;1.13;0.70;;;;;;;;;;6182067;22;20701;-95
2023/11/15 13:32:49;;;;;;;1.60;0.90;;;;;;;;;;6226496;23;20327;-95
2023/11/15 13:44:03;;;;;;;2.75;1.10;;;;;;;;;;6271425;22;20404;-94
2023/11/15 13:46:55;;;;;;;5.15;0.93;;;;;;;;;;6255989;22;20008;-96
2023/11/15 13:49:24;;;;;;;1.90;1.02;;;;;;;;;;6248326;22;20341;-95
2023/11/15 13:51:51;;;;;;;2.63;0.90;;;;;;;;;;6255462;22;20006;-95
2023/11/15 13:54:27;;;;;;;1.73;1.05;;;;;;;;;;6256331;22;20004;-95
2023/11/15 13:56:53;;;;;;;2.28;1.10;;;;;;;;;;6256182;22;20000;-93
2023/11/15 13:59:22;;;;;;;4.63;1.20;;;;;;;;;;6257514;22;20008;-94
2023/11/15 14:01:49;;;;;;;2.05;1.40;;;;;;;;;;6255474;22;19996;-96
2023/11/15 14:04:24;;;;;;;2.45;1.02;;;;;;;;;;6254917;22;20004;-95
2023/11/15 14:06:52;;;;;;;1.85;0.90;;;;;;;;;;6254893;22;20012;-94
2023/11/15 14:09:20;;;;;;;1.92;1.08;;;;;;;;;;6268770;22;20004;-94
2023/11/15 14:14:24;;;;;;;2.47;0.90;;;;;;;;;;6266893;22;20024;-95
2023/11/15 14:19:46;;;;;;;2.87;1.30;;;;;;;;;;6198446;22;20052;31
2023/11/15 14:22:15;;;;;;;1.95;1.00;;;;;;;;;;6163493;23;20242;-96
2023/11/15 14:24:41;;;;;;;2.40;1.20;;;;;;;;;;6166337;23;20084;-94
2023/11/15 14:27:07;;;;;;;2.85;1.40;;;;;;;;;;6162271;23;20073;-94
2023/11/15 14:29:34;;;;;;;3.15;1.30;;;;;;;;;;6166866;23;20004;-95
2023/11/15 14:32:38;;;;;;;3.80;1.00;;;;;;;;;;6167958;23;20006;-95
2023/11/15 14:35:29;;;;;;;2.40;1.05;;;;;;;;;;6168178;23;20057;-96
2023/11/15 14:38:07;;;;;;;6.57;1.15;;;;;;;;;;6166658;23;20029;-95
2023/11/15 14:41:05;;;;;;;1.73;0.70;;;;;;;;;;6164812;23;20006;-96
2023/11/15 14:43:32;;;;;;;2.58;1.10;;;;;;;;;;6137569;23;20038;-95
2023/11/15 14:48:33;;;;;;;1.80;1.08;;;;;;;;;;6237899;23;20027;-95
2023/11/15 14:51:26;;;;;;;3.05;1.58;;;;;;;;;;6201042;23;20004;-96
2023/11/15 14:53:58;;;;;;;2.40;0.93;;;;;;;;;;6194616;23;20008;-95
2023/11/15 14:59:59;;;;;;;;;;;;;;;;;;;;;
2023/11/15 15:02:28;;;;;;;2.10;1.35;;;;;;;;;;6292180;22;20027;-95
2023/11/15 15:04:59;;;;;;;4.28;0.90;;;;;;;;;;6264973;22;20071;-95
2023/11/15 15:07:25;;;;;;;2.60;1.30;;;;;;;;;;6282663;22;20559;-95
2023/11/15 15:09:52;;;;;;;1.85;0.90;;;;;;;;;;6257832;22;20138;-94
2023/11/15 15:12:20;;;;;;;3.05;1.30;;;;;;;;;;6259207;22;20004;-94
2023/11/15 15:14:46;;;;;;;1.90;1.23;;;;;;;;;;6257534;22;20008;-92
2023/11/15 15:17:40;;;;;;;2.47;1.40;;;;;;;;;;6263642;22;20086;-96
2023/11/15 15:25:54;;;;;;;2.88;1.20;;;;;;;;;;6287558;22;20010;-95
2023/11/15 15:28:45;;;;;;;1.40;0.90;;;;;;;;;;6291813;22;20103;-95
2023/11/15 15:31:30;;;;;;;4.15;1.15;;;;;;;;;;6260028;22;20027;-95
2023/11/15 15:33:59;;;;;;;1.90;1.10;;;;;;;;;;6261192;22;20000;-94
2023/11/15 15:36:35;;;;;;;2.65;1.00;;;;;;;;;;6257353;22;20008;-96
2023/11/15 15:39:19;;;;;;;2.70;0.80;;;;;;;;;;6255198;22;20006;-93
2023/11/15 15:41:46;;;;;;;4.60;1.40;;;;;;;;;;6256639;22;20008;-96
2023/11/15 15:44:12;;;;;;;2.67;1.00;;;;;;;;;;6259957;22;20087;-94
2023/11/15 15:46:40;;;;;;;3.35;1.85;;;;;;;;;;6259546;22;20038;-95
2023/11/15 15:49:32;;;;;;;10.85;3.83;;;;;;;;;;6259791;22;20004;-94
2023/11/15 15:52:04;;;;;;;2.50;1.10;;;;;;;;;;6258826;22;20012;-94
2023/11/15 15:54:33;;;;;;;3.10;1.33;;;;;;;;;;6258809;22;20000;-95
2023/11/15 15:57:09;;;;;;;3.45;1.60;;;;;;;;;;6290972;22;20076;-94
2023/11/15 16:00:16;;;;;;;2.30;0.90;;;;;;;;;;6259278;22;20518;-95
2023/11/15 16:03:01;;;;;;;1.33;0.80;;;;;;;;;;6221705;22;20011;-95
2023/11/15 16:05:30;;;;;;;2.30;0.80;;;;;;;;;;6255601;22;20004;-94
2023/11/15 16:07:57;;;;;;;2.45;0.80;;;;;;;;;;6256267;22;20091;-95
2023/11/15 16:10:36;;;;;;;3.17;0.98;;;;;;;;;;6260199;22;20015;-96
2023/11/15 16:13:05;;;;;;;1.55;0.85;;;;;;;;;;6257165;22;20004;-96
2023/11/15 16:15:37;;;;;;;1.33;0.82;;;;;;;;;;6255591;22;20011;-94
2023/11/15 16:18:37;;;;;;;2.20;0.95;;;;;;;;;;6256622;22;20337;-95
2023/11/15 16:21:26;;;;;;;2.72;0.70;;;;;;;;;;6261260;22;20426;-96
2023/11/15 16:23:59;;;;;;;2.10;0.90;;;;;;;;;;6265707;22;20047;-96
2023/11/15 16:26:31;;;;;;;1.85;0.70;;;;;;;;;;6268096;22;20023;-95
2023/11/15 16:34:46;;;;;;;2.88;1.00;;;;;;;;;;6296031;22;20046;-95
2023/11/15 16:37:19;;;;;;;3.55;1.42;;;;;;;;;;6288548;22;20389;-96
2023/11/15 16:39:50;;;;;;;3.85;1.70;;;;;;;;;;6232671;22;20019;-94
2023/11/15 16:45:30;;;;;;;3.17;1.35;;;;;;;;;;6294771;22;20075;-96
2023/11/15 16:48:31;;;;;;;2.08;1.02;;;;;;;;;;6250787;22;20007;-96
2023/11/15 16:51:17;;;;;;;3.58;1.00;;;;;;;;;;6273931;22;20031;-96
2023/11/15 16:53:47;;;;;;;2.40;0.90;;;;;;;;;;6254416;22;20020;-96
2023/11/15 16:56:16;;;;;;;4.15;1.30;;;;;;;;;;6207290;23;20012;-94
2023/11/15 16:58:52;;;;;;;2.60;0.90;;;;;;;;;;6238454;22;20024;-95
2023/11/15 17:01:36;;;;;;;;;;;;;;;;;;;;;
2023/11/15 17:04:05;;;;;;;2.33;0.90;;;;;;;;;;6260505;22;20028;-95
2023/11/15 17:06:31;;;;;;;3.28;1.27;;;;;;;;;;6236531;23;20008;-94
2023/11/15 17:08:59;;;;;;;2.53;1.30;;;;;;;;;;6236172;23;20008;-96
2023/11/15 17:14:14;;;;;;;4.00;1.27;;;;;;;;;;6257573;23;20072;-96
2023/11/15 17:16:40;;;;;;;3.60;1.20;;;;;;;;;;6232350;23;20043;-96
2023/11/15 17:19:09;;;;;;;3.65;1.20;;;;;;;;;;6229892;23;20011;-95
2023/11/15 17:21:38;;;;;;;3.00;1.38;;;;;;;;;;6226095;23;20008;-95
2023/11/15 17:27:14;;;;;;;3.50;1.00;;;;;;;;;;6254670;23;20047;-93
2023/11/15 17:32:50;;;;;;;3.08;1.20;;;;;;;;;;6255964;23;20015;-93
2023/11/15 17:35:25;;;;;;;2.50;1.25;;;;;;;;;;6222055;23;20011;-95
2023/11/15 17:37:54;;;;;;;3.17;1.30;;;;;;;;;;6189763;23;20092;-94
2023/11/15 17:43:08;;;;;;;4.90;1.52;;;;;;;;;;6245963;22;20024;-96
2023/11/15 17:45:37;;;;;;;6.40;1.50;;;;;;;;;;6277767;22;20032;-95
2023/11/15 17:48:08;;;;;;;3.83;1.38;;;;;;;;;;6259305;22;20453;-96
2023/11/15 17:50:37;;;;;;;3.78;1.40;;;;;;;;;;6246791;22;20372;-96
2023/11/15 17:53:17;;;;;;;3.67;1.40;;;;;;;;;;6235395;23;20008;-96
2023/11/15 17:58:22;;;;;;;3.03;1.25;;;;;;;;;;6286957;22;20368;-96
2023/11/15 18:01:01;;;;;;;;;;;;;;;;;;;;;
2023/11/15 18:06:38;;;;;;;1.95;0.95;;;;;;;;;;6272645;22;20093;-94
2023/11/15 18:14:40;;;;;;;4.82;1.40;;;;;;;;;;6277424;22;20023;-94
2023/11/15 18:17:07;;;;;;;;;;;;;;;;;;6253423;22;20059;-94
2023/11/15 18:19:33;;;;;;;3.92;1.02;;;;;;;;;;6254208;22;19899;-95
2023/11/15 18:22:00;;;;;;;2.17;1.00;;;;;;;;;;6255655;22;20058;-92
2023/11/15 18:24:26;;;;;;;4.00;1.20;;;;;;;;;;6256254;22;20004;-93
2023/11/15 18:26:56;;;;;;;4.45;1.63;;;;;;;;;;6257052;22;20016;-94
2023/11/15 18:29:22;;;;;;;5.70;1.88;;;;;;;;;;6256163;22;20010;-94
2023/11/15 18:31:48;;;;;;;5.82;1.40;;;;;;;;;;6256920;22;20034;-96
2023/11/15 18:34:15;;;;;;;3.50;1.40;;;;;;;;;;6256004;22;20485;-95
2023/11/15 18:36:55;;;;;;;2.45;1.50;;;;;;;;;;6258589;22;20003;-96
2023/11/15 18:39:21;;;;;;;3.28;1.63;;;;;;;;;;6251573;22;20008;-93
2023/11/15 18:41:47;;;;;;;2.65;1.25;;;;;;;;;;6258652;22;20003;-93
2023/11/15 18:44:16;;;;;;;3.33;1.52;;;;;;;;;;6253290;22;20498;-93
2023/11/15 18:49:59;;;;;;;6.13;2.17;;;;;;;;;;6286114;22;20026;-93
2023/11/15 18:55:43;;;;;;;2.60;1.27;;;;;;;;;;6283681;22;20050;-94
2023/11/15 18:58:21;;;;;;;3.42;1.00;;;;;;;;;;6258318;22;20008;-93
2023/11/15 19:06:55;;;;;;;4.18;0.90;;;;;;;;;;6261659;23;20084;-95
2023/11/15 19:12:08;;;;;;;4.30;2.00;;;;;;;;;;6259769;22;20043;-94
2023/11/15 19:14:36;;;;;;;5.63;2.70;;;;;;;;;;6256054;23;20008;-95
2023/11/15 19:17:09;;;;;;;4.38;2.00;;;;;;;;;;6255221;23;20005;-94
2023/11/15 19:19:35;;;;;;;3.28;1.13;;;;;;;;;;6253711;23;20004;-95
2023/11/15 19:22:04;;;;;;;3.00;1.38;;;;;;;;;;6252224;23;20008;-96
2023/11/15 19:24:34;;;;;;;4.10;1.27;;;;;;;;;;6251451;23;20433;-93
2023/11/15 19:27:19;;;;;;;4.30;1.33;;;;;;;;;;6261382;23;20016;-93
2023/11/15 19:29:50;;;;;;;4.05;1.90;;;;;;;;;;6259612;23;20054;-94
2023/11/15 19:32:16;;;;;;;6.53;1.85;;;;;;;;;;6252943;23;20028;-95
2023/11/15 19:34:50;;;;;;;2.80;1.50;;;;;;;;;;6254280;23;20006;-96
2023/11/15 19:40:21;;;;;;;2.13;1.20;;;;;;;;;;6255868;23;20011;-95
2023/11/15 19:43:09;;;;;;;4.65;1.60;;;;;;;;;;6230582;23;20115;-96
2023/11/15 19:45:58;;;;;;;3.10;1.70;;;;;;;;;;6256581;23;20028;-94
2023/11/15 19:54:07;;;;;;;2.05;0.93;;;;;;;;;;6256998;22;20024;-95
2023/11/15 19:56:46;;;;;;;2.55;1.08;;;;;;;;;;6254744;23;20004;-96
2023/11/15 20:27:05;;;;;;;3.08;1.70;;;;;;;;;;6293017;22;20018;-94
2023/11/15 20:29:35;;;;;;;3.15;1.50;;;;;;;;;;6260213;22;20014;-94
2023/11/15 20:32:20;;;;;;;5.50;0.90;;;;;;;;;;6261391;22;20004;-95
2023/11/15 20:47:06;;;;;;;3.95;1.70;;;;;;;;;;6289559;22;20026;-95
2023/11/15 20:49:32;;;;;;;2.80;1.27;;;;;;;;;;6259965;22;20004;-94
2023/11/15 20:52:01;;;;;;;3.15;1.40;;;;;;;;;;6239594;22;20020;-94
2023/11/15 20:54:31;;;;;;;4.45;1.42;;;;;;;;;;6222481;23;20005;-95
2023/11/15 20:57:03;;;;;;;3.58;1.20;;;;;;;;;;6221399;23;20024;-96
2023/11/15 20:59:39;;;;;;;4.72;1.35;;;;;;;;;;6224096;23;20001;-96
2023/11/15 21:02:45;;;;;;;5.55;1.30;;;;;;;;;;6226055;23;20015;-94
2023/11/15 21:05:20;;;;;;;3.20;1.42;;;;;;;;;;6222839;23;20060;-95
2023/11/15 21:13:37;;;;;;;3.05;1.20;;;;;;;;;;6223820;23;20012;-95
2023/11/15 21:19:31;;;;;;;3.50;1.10;;;;;;;;;;6225420;23;20441;-95
2023/11/15 21:22:09;;;;;;;4.72;1.13;;;;;;;;;;6219561;22;20052;-95
2023/11/15 21:24:35;;;;;;;4.68;1.00;;;;;;;;;;6280414;22;20059;-95
2023/11/15 21:27:01;;;;;;;5.82;1.10;;;;;;;;;;6281250;22;20012;-94
